Aérodrome :
LOGIN :

S'inscrire | Disclaimer

   EN    FR    IT 

 










Légende :    VFR   VFR Marginal   IFR   IFR Intensif   IFR Très Intensif
Visi : 
Plafond : 
>= 8 km
>= 3000ft
5 à 8 km
1000 à 3000 ft
1500m à 5 km
500 à 1000 ft
800 à 1500m
200 à 500 ft
< 800m
< 200 ft
Symboles :   Orages  Brouillard  Fortes neiges  Fortes précipitations  Vent > 20 kt
SIGMETs :   Divers  Orages  Givrage  Turbulence  Onde Orograph.  Cendres Volcan.







- Altitude de l'aérodrome : 314 ft
- Code IATA : OTP


LROP - Bucarest - Henri Coanda

DERNIER METAR :
  • 241830Z 31005KT CAVOK 15/15 Q1008 R88/29//95 NOSIG

METARs EXPIRÉS :
  • 241800Z AUTO 30006KT 9999 FEW100/// BKN140/// 15/15 Q1008 NOSIG
  • 241730Z 29007KT 240V310 9999 FEW010 FEW050CB 15/15 Q1008 R88/29//95 NOSIG
  • 241700Z 25005KT 9999 SCT050CB 15/15 Q1008 R88/29//95 NOSIG
  • 241630Z VRB02KT 9999 -SHRA BKN050CB 15/15 Q1008 R88/29//95 NOSIG
  • 241600Z 11005KT 9999 -SHRA BKN050CB 15/15 Q1007 RESHRA R88/29//95 TEMPO 5000 SHRA

TAF TAF LROP
Valide du 24 à 18h jusqu'au 25 à 18h UTC


241700Z 2418/2518 26006KT CAVOK
TEMPO 2418/2424 SCT050CB
PROB30
TEMPO 2500/2504 3000 BR
PROB40
TEMPO 2509/2514 SCT040CB
Pas de NOTAMs connus pour ce terrain.



MET'MAP, la Météo Aéronautique d'un coup d'oeil ! - Copyright ORBIFLY Décembre 2007 - Disclaimer

ORBIFLY MET'MAP TEAM :

Programmation & Développement : Alexandra Zaïnal
Conception & Développement : Baudouin d'Aumeries
Co-Programmation & Développement : Marc-Olivier Méhu
Soutien technique & logistique : Manuel Goepfert

Contact : metmap@orbifly.com




SOURCES & CREDITS :

   NOAA